createdAt,value
2023-05-06T00:01:24.363Z,50.21
2023-05-06T00:04:45.702Z,49.97
2023-05-06T00:08:08.526Z,50.76
2023-05-06T00:11:29.918Z,50.19
2023-05-06T00:14:51.615Z,50.00
2023-05-06T00:18:15.061Z,50.10
2023-05-06T00:21:36.733Z,50.33
2023-05-06T00:24:59.685Z,50.05
2023-05-06T00:28:21.030Z,50.57
2023-05-06T00:31:42.418Z,50.78
2023-05-06T00:35:04.389Z,52.24
2023-05-06T00:38:26.072Z,52.84
2023-05-06T00:41:49.083Z,53.68
2023-05-06T00:45:11.394Z,54.48
2023-05-06T00:48:33.360Z,54.92
2023-05-06T00:51:57.248Z,55.23
2023-05-06T00:55:19.084Z,55.29
2023-05-06T00:58:42.247Z,55.61
2023-05-06T01:02:04.444Z,54.85
2023-05-06T01:05:34.064Z,55.05
2023-05-06T01:09:01.932Z,55.80
2023-05-06T01:12:30.540Z,57.33
2023-05-06T01:15:56.471Z,57.01
2023-05-06T01:19:35.223Z,57.71
2023-05-06T01:22:57.117Z,56.95
2023-05-06T01:26:20.408Z,58.78
2023-05-06T01:29:44.205Z,59.85
2023-05-06T01:33:12.376Z,61.13
2023-05-06T01:36:40.013Z,61.94
2023-05-06T01:40:04.517Z,61.93
2023-05-06T01:43:32.280Z,62.45
2023-05-06T01:46:56.136Z,62.96
2023-05-06T01:50:17.948Z,62.54
2023-05-06T01:53:39.665Z,63.62
2023-05-06T01:57:02.141Z,63.15
2023-05-06T02:00:26.418Z,63.72
2023-05-06T02:03:48.131Z,63.95
2023-05-06T02:07:09.724Z,64.58
2023-05-06T02:10:31.471Z,64.85
2023-05-06T02:13:58.198Z,64.60
2023-05-06T02:17:21.447Z,65.45
2023-05-06T02:20:43.068Z,65.43
2023-05-06T02:24:09.476Z,65.94
2023-05-06T02:27:31.209Z,66.29
2023-05-06T02:30:56.975Z,66.81
2023-05-06T02:34:19.727Z,67.88
2023-05-06T02:37:40.953Z,67.77
2023-05-06T02:41:02.166Z,67.92
2023-05-06T02:44:23.315Z,68.50
2023-05-06T02:47:44.957Z,68.46
2023-05-06T02:51:08.148Z,68.39
2023-05-06T02:54:29.644Z,68.12
2023-05-06T02:57:51.325Z,68.18
2023-05-06T03:01:12.872Z,68.39
2023-05-06T03:04:34.805Z,69.15
2023-05-06T03:07:57.970Z,69.73
2023-05-06T03:11:19.505Z,69.67
2023-05-06T03:14:40.823Z,69.59
2023-05-06T03:18:02.688Z,69.75
2023-05-06T03:21:24.932Z,69.97
2023-05-06T03:24:49.265Z,70.55
2023-05-06T03:28:12.119Z,70.73
2023-05-06T03:31:35.343Z,70.99
2023-05-06T03:34:57.731Z,71.51
2023-05-06T03:38:19.460Z,71.74
2023-05-06T03:41:50.336Z,72.03
2023-05-06T03:45:13.175Z,71.96
2023-05-06T03:48:35.792Z,72.27
2023-05-06T03:52:00.555Z,72.31
2023-05-06T03:55:22.541Z,72.62
2023-05-06T03:58:45.964Z,72.68
2023-05-06T04:02:07.680Z,72.44
2023-05-06T04:05:31.315Z,72.99
2023-05-06T04:08:52.904Z,73.24
2023-05-06T04:12:14.717Z,73.98
2023-05-06T04:15:38.624Z,73.98
2023-05-06T04:19:05.736Z,74.01
2023-05-06T04:22:29.370Z,74.19
2023-05-06T04:25:51.326Z,74.29
2023-05-06T04:29:15.472Z,74.61
2023-05-06T04:32:50.777Z,74.45
2023-05-06T04:36:12.878Z,74.61
2023-05-06T04:39:40.223Z,74.62
2023-05-06T04:43:02.992Z,75.18
2023-05-06T04:46:26.121Z,75.24
2023-05-06T04:49:49.798Z,75.26
2023-05-06T04:53:11.620Z,75.33
2023-05-06T04:56:34.345Z,75.67
2023-05-06T04:59:55.790Z,75.77
2023-05-06T05:03:17.541Z,75.51
2023-05-06T05:06:40.465Z,75.90
2023-05-06T05:10:03.351Z,75.95
2023-05-06T05:13:25.924Z,76.31
2023-05-06T05:16:48.787Z,76.80
2023-05-06T05:20:11.189Z,76.43
2023-05-06T05:23:34.094Z,76.50
2023-05-06T05:26:55.968Z,76.79
2023-05-06T05:30:18.199Z,76.48
2023-05-06T05:33:39.380Z,75.94
2023-05-06T05:37:04.153Z,75.89
2023-05-06T05:40:29.132Z,75.16
2023-05-06T05:43:51.192Z,75.60
2023-05-06T05:47:13.794Z,76.12
2023-05-06T05:50:35.348Z,76.32
2023-05-06T05:53:57.063Z,76.74
2023-05-06T05:57:21.308Z,76.14
2023-05-06T06:00:42.720Z,76.60
2023-05-06T06:04:08.089Z,76.54
2023-05-06T06:07:29.608Z,76.99
2023-05-06T06:10:51.254Z,77.57
2023-05-06T06:14:17.738Z,77.93
2023-05-06T06:17:41.030Z,77.53
2023-05-06T06:21:02.758Z,76.90
2023-05-06T06:24:25.670Z,77.43
2023-05-06T06:27:47.302Z,77.19
2023-05-06T06:31:10.237Z,77.65
2023-05-06T06:34:31.828Z,77.22
2023-05-06T06:37:53.571Z,77.57
2023-05-06T06:41:15.257Z,78.04
2023-05-06T06:44:36.796Z,77.38
2023-05-06T06:47:59.596Z,77.69
2023-05-06T06:51:21.284Z,78.44
2023-05-06T06:54:42.961Z,78.94
2023-05-06T06:58:04.141Z,78.69
2023-05-06T07:01:25.416Z,79.46
2023-05-06T07:04:48.367Z,78.81
2023-05-06T07:08:09.622Z,79.01
2023-05-06T07:11:30.810Z,78.82
2023-05-06T07:14:51.990Z,79.13
2023-05-06T07:18:13.717Z,79.47
2023-05-06T07:21:36.758Z,78.49
2023-05-06T07:24:57.971Z,78.85
2023-05-06T07:28:19.189Z,78.93
2023-05-06T07:31:41.008Z,78.49
2023-05-06T07:35:02.814Z,78.65
2023-05-06T07:38:26.028Z,78.97
2023-05-06T07:41:47.211Z,79.22
2023-05-06T07:45:09.988Z,78.77
2023-05-06T07:48:32.644Z,79.25
2023-05-06T07:51:54.287Z,79.59
2023-05-06T07:55:17.044Z,80.37
2023-05-06T07:58:38.564Z,80.00
2023-05-06T08:02:00.264Z,79.91
2023-05-06T08:05:21.436Z,79.77
2023-05-06T08:08:42.920Z,80.14
2023-05-06T08:12:06.444Z,79.65
2023-05-06T08:15:27.932Z,80.11
2023-05-06T08:18:49.257Z,80.87
2023-05-06T08:22:10.492Z,80.95
2023-05-06T08:25:31.849Z,81.30
2023-05-06T08:28:56.203Z,80.98
2023-05-06T08:32:17.807Z,81.20
2023-05-06T08:35:39.430Z,80.83
2023-05-06T08:39:00.683Z,80.64
2023-05-06T08:42:24.091Z,81.51
2023-05-06T08:45:47.561Z,81.48
2023-05-06T08:49:08.868Z,81.68
2023-05-06T08:52:30.366Z,81.63
2023-05-06T08:55:55.350Z,81.82
2023-05-06T08:59:18.017Z,81.43
2023-05-06T09:02:43.151Z,80.93
2023-05-06T09:06:05.719Z,80.48
2023-05-06T09:09:27.243Z,80.33
2023-05-06T09:12:48.941Z,80.63
2023-05-06T09:16:10.592Z,81.76
2023-05-06T09:19:33.677Z,81.25
2023-05-06T09:22:54.953Z,81.16
2023-05-06T09:26:17.033Z,81.48
2023-05-06T09:29:38.578Z,80.70
2023-05-06T09:33:02.731Z,81.30
2023-05-06T09:36:27.474Z,82.69
2023-05-06T09:39:48.906Z,81.01
2023-05-06T09:43:10.665Z,80.64
2023-05-06T09:46:33.120Z,79.71
2023-05-06T09:49:58.308Z,79.46
2023-05-06T09:53:23.417Z,80.52
2023-05-06T09:56:46.491Z,79.79
2023-05-06T10:00:09.786Z,79.41
2023-05-06T10:03:35.868Z,79.21
2023-05-06T10:07:00.430Z,79.11
2023-05-06T10:10:25.588Z,79.13
2023-05-06T10:13:47.647Z,79.98
2023-05-06T10:17:10.784Z,80.62
2023-05-06T10:20:34.080Z,80.13
2023-05-06T10:24:01.025Z,78.64
2023-05-06T10:27:26.183Z,78.46
2023-05-06T10:30:50.565Z,78.91
2023-05-06T10:34:12.185Z,79.12
2023-05-06T10:37:36.047Z,79.05
2023-05-06T10:40:59.014Z,79.22
2023-05-06T10:45:03.805Z,78.89
2023-05-06T10:48:27.642Z,78.96
2023-05-06T10:51:49.959Z,78.50
2023-05-06T10:55:26.896Z,78.23
2023-05-06T10:58:49.313Z,77.86
2023-05-06T11:02:12.264Z,78.69
2023-05-06T11:05:37.208Z,78.82
2023-05-06T11:09:00.869Z,77.89
2023-05-06T11:12:22.668Z,78.81
2023-05-06T11:15:46.248Z,77.66
2023-05-06T11:19:09.324Z,77.73
2023-05-06T11:22:40.361Z,77.64
2023-05-06T11:26:02.777Z,77.50
2023-05-06T11:29:24.946Z,77.56
2023-05-06T11:32:47.835Z,78.43
2023-05-06T11:36:16.436Z,78.32
2023-05-06T11:39:40.723Z,78.12
2023-05-06T11:43:12.575Z,77.64
2023-05-06T11:46:35.457Z,78.26
2023-05-06T11:49:58.492Z,79.01
2023-05-06T11:53:23.141Z,78.92
2023-05-06T11:56:46.651Z,79.03
2023-05-06T12:00:10.741Z,78.31
2023-05-06T12:03:34.193Z,78.34
2023-05-06T12:06:57.286Z,78.03
2023-05-06T12:10:20.281Z,77.56
2023-05-06T12:13:43.879Z,77.06
2023-05-06T12:17:06.224Z,76.67
2023-05-06T12:20:27.749Z,78.01
2023-05-06T12:23:53.979Z,77.94
2023-05-06T12:27:29.967Z,77.64
2023-05-06T12:30:51.547Z,77.17
2023-05-06T12:34:13.503Z,77.48
2023-05-06T12:37:34.989Z,77.07
2023-05-06T12:40:56.877Z,76.01
2023-05-06T12:44:37.409Z,76.13
2023-05-06T12:48:00.278Z,75.30
2023-05-06T12:51:22.210Z,75.20
2023-05-06T12:54:43.823Z,75.62
2023-05-06T12:58:05.995Z,75.10
2023-05-06T13:01:29.241Z,76.06
2023-05-06T13:04:50.828Z,77.01
2023-05-06T13:08:12.786Z,76.49
2023-05-06T13:11:34.438Z,76.99
2023-05-06T13:14:56.084Z,76.96
2023-05-06T13:18:18.885Z,76.81
2023-05-06T13:21:42.556Z,75.92
2023-05-06T13:25:04.312Z,76.05
2023-05-06T13:28:25.810Z,76.05
2023-05-06T13:31:47.476Z,75.44
2023-05-06T13:35:11.395Z,75.54
2023-05-06T13:38:32.738Z,76.51
2023-05-06T13:41:54.239Z,76.69
2023-05-06T13:45:15.728Z,76.44
2023-05-06T13:48:37.053Z,77.31
2023-05-06T13:52:00.193Z,77.29
2023-05-06T13:55:21.760Z,76.33
2023-05-06T13:58:43.377Z,75.97
2023-05-06T14:02:08.068Z,76.06
2023-05-06T14:05:30.508Z,75.95
2023-05-06T14:08:52.925Z,76.08
2023-05-06T14:12:15.166Z,76.27
2023-05-06T14:15:36.823Z,76.47
2023-05-06T14:18:58.755Z,76.54
2023-05-06T14:22:21.372Z,76.41
2023-05-06T14:25:43.903Z,76.43
2023-05-06T14:29:05.271Z,76.69
2023-05-06T14:32:26.389Z,77.81
2023-05-06T14:35:49.279Z,77.74
2023-05-06T14:39:11.870Z,77.98
2023-05-06T14:42:35.775Z,78.69
2023-05-06T14:45:57.326Z,79.41
2023-05-06T14:49:18.851Z,80.11
2023-05-06T14:52:41.367Z,79.56
2023-05-06T14:56:02.865Z,79.61
2023-05-06T14:59:25.824Z,79.53
2023-05-06T15:02:47.449Z,79.80
2023-05-06T15:06:09.267Z,79.64
2023-05-06T15:09:31.094Z,79.65
2023-05-06T15:12:52.862Z,79.22
2023-05-06T15:16:15.897Z,79.70
2023-05-06T15:19:37.737Z,79.52
2023-05-06T15:22:59.586Z,79.96
2023-05-06T15:26:21.513Z,80.02
2023-05-06T15:29:43.095Z,80.21
2023-05-06T15:33:06.639Z,80.51
2023-05-06T15:36:28.612Z,80.70
2023-05-06T15:39:50.439Z,79.93
2023-05-06T15:43:13.853Z,81.14
2023-05-06T15:46:42.056Z,80.60
2023-05-06T15:50:16.553Z,81.25
2023-05-06T15:53:43.533Z,80.79
2023-05-06T15:57:07.137Z,81.62
2023-05-06T16:00:29.223Z,81.85
2023-05-06T16:03:51.440Z,81.78
2023-05-06T16:07:15.157Z,80.89
2023-05-06T16:10:36.831Z,80.68
2023-05-06T16:13:58.445Z,80.59
2023-05-06T16:17:19.940Z,81.04
2023-05-06T16:20:41.479Z,81.00
2023-05-06T16:24:04.568Z,80.72
2023-05-06T16:27:27.432Z,80.88
2023-05-06T16:30:48.786Z,80.12
2023-05-06T16:34:10.463Z,79.90
2023-05-06T16:37:31.650Z,80.18
2023-05-06T16:40:54.860Z,80.53
2023-05-06T16:44:16.040Z,80.24
2023-05-06T16:47:37.865Z,80.23
2023-05-06T16:50:59.901Z,80.14
2023-05-06T16:54:21.402Z,80.13
2023-05-06T16:57:44.756Z,79.97
2023-05-06T17:01:08.477Z,80.14
2023-05-06T17:04:29.874Z,80.85
2023-05-06T17:07:51.148Z,80.50
2023-05-06T17:11:12.631Z,80.49
2023-05-06T17:14:35.935Z,81.05
2023-05-06T17:17:57.737Z,81.07
2023-05-06T17:21:20.595Z,81.09
2023-05-06T17:24:43.748Z,81.76
2023-05-06T17:28:05.371Z,81.97
2023-05-06T17:31:28.533Z,82.11
2023-05-06T17:34:49.818Z,82.03
2023-05-06T17:38:12.829Z,81.76
2023-05-06T17:41:34.166Z,81.91
2023-05-06T17:44:56.029Z,81.55
2023-05-06T17:48:19.127Z,81.69
2023-05-06T17:51:40.932Z,81.42
2023-05-06T17:55:16.421Z,81.56
2023-05-06T17:58:38.987Z,80.84
2023-05-06T18:02:00.841Z,80.92
2023-05-06T18:05:25.561Z,81.25
2023-05-06T18:08:47.310Z,81.29
2023-05-06T18:12:09.316Z,81.55
2023-05-06T18:15:30.736Z,81.95
2023-05-06T18:18:52.416Z,81.11
2023-05-06T18:22:15.102Z,81.71
2023-05-06T18:25:36.560Z,81.37
2023-05-06T18:28:58.128Z,81.54
2023-05-06T18:32:19.527Z,81.24
2023-05-06T18:35:41.126Z,80.89
2023-05-06T18:39:04.512Z,81.19
2023-05-06T18:42:27.494Z,81.67
2023-05-06T18:45:49.269Z,81.42
2023-05-06T18:49:13.896Z,81.22
2023-05-06T18:52:35.986Z,81.04
2023-05-06T18:55:58.767Z,81.11
2023-05-06T18:59:21.256Z,81.33
2023-05-06T19:02:42.922Z,80.99
2023-05-06T19:06:08.022Z,80.86
2023-05-06T19:09:29.385Z,80.82
2023-05-06T19:12:52.372Z,80.92
2023-05-06T19:16:13.878Z,81.21
2023-05-06T19:19:35.044Z,81.19
2023-05-06T19:22:56.835Z,81.19
2023-05-06T19:26:18.029Z,81.16
2023-05-06T19:29:41.402Z,81.61
2023-05-06T19:33:03.694Z,81.47
2023-05-06T19:36:25.018Z,81.70
2023-05-06T19:39:47.580Z,81.36
2023-05-06T19:43:09.069Z,81.41
2023-05-06T19:46:32.325Z,81.25
2023-05-06T19:49:54.248Z,82.32
2023-05-06T19:53:17.659Z,81.91
2023-05-06T19:56:39.111Z,81.18
2023-05-06T20:00:00.404Z,81.03
2023-05-06T20:03:23.620Z,81.07
2023-05-06T20:06:45.476Z,81.20
2023-05-06T20:10:09.634Z,80.96
2023-05-06T20:13:31.307Z,80.88
2023-05-06T20:16:53.292Z,81.07
2023-05-06T20:20:16.031Z,80.83
2023-05-06T20:23:37.618Z,80.95
2023-05-06T20:26:59.314Z,80.80
2023-05-06T20:30:20.733Z,80.85
2023-05-06T20:33:42.492Z,80.62
2023-05-06T20:37:05.656Z,80.58
2023-05-06T20:40:27.125Z,80.77
2023-05-06T20:43:48.868Z,80.70
2023-05-06T20:47:12.472Z,80.61
2023-05-06T20:50:33.995Z,80.73
2023-05-06T20:53:58.930Z,80.67
2023-05-06T20:57:23.284Z,80.66
2023-05-06T21:00:44.747Z,81.04
2023-05-06T21:04:07.267Z,80.91
2023-05-06T21:07:28.785Z,80.89
2023-05-06T21:10:51.619Z,80.82
2023-05-06T21:14:13.313Z,81.48
2023-05-06T21:17:34.492Z,81.12
2023-05-06T21:20:55.955Z,81.02
2023-05-06T21:24:17.175Z,80.84
2023-05-06T21:27:40.355Z,80.63
2023-05-06T21:31:04.204Z,80.93
2023-05-06T21:34:26.545Z,80.98
2023-05-06T21:37:48.185Z,81.17
2023-05-06T21:41:10.108Z,81.00
2023-05-06T21:44:32.915Z,81.16
2023-05-06T21:47:54.120Z,80.84
2023-05-06T21:51:16.004Z,80.96
2023-05-06T21:54:37.659Z,81.24
2023-05-06T21:57:58.919Z,80.91
2023-05-06T22:01:21.478Z,80.97
2023-05-06T22:04:43.132Z,80.96
2023-05-06T22:08:04.271Z,81.35
2023-05-06T22:11:25.919Z,81.14
2023-05-06T22:14:47.218Z,81.09
2023-05-06T22:18:10.649Z,81.14
2023-05-06T22:21:32.351Z,81.45
2023-05-06T22:24:54.087Z,80.99
2023-05-06T22:28:16.468Z,81.14
2023-05-06T22:31:38.376Z,80.91
2023-05-06T22:35:01.591Z,81.19
2023-05-06T22:38:23.487Z,81.10
2023-05-06T22:41:45.624Z,81.15
2023-05-06T22:45:09.446Z,81.22
2023-05-06T22:48:31.661Z,81.29
2023-05-06T22:51:54.274Z,81.32
2023-05-06T22:55:16.056Z,80.96
2023-05-06T22:58:37.775Z,81.07
2023-05-06T23:01:59.510Z,81.05
2023-05-06T23:05:21.314Z,80.80
2023-05-06T23:08:44.014Z,80.65
2023-05-06T23:12:06.280Z,80.89
2023-05-06T23:15:28.040Z,81.07
2023-05-06T23:18:49.362Z,80.92
2023-05-06T23:26:02.824Z,80.63
2023-05-06T23:29:24.325Z,80.75
2023-05-06T23:32:46.265Z,81.17
2023-05-06T23:36:08.279Z,80.51
2023-05-06T23:39:29.461Z,81.01
2023-05-06T23:42:52.556Z,81.22
2023-05-06T23:46:14.042Z,80.91
2023-05-06T23:49:36.435Z,81.00
2023-05-06T23:52:58.051Z,81.43
2023-05-06T23:56:20.558Z,80.90
2023-05-06T23:59:43.533Z,80.65
